Ackermanville, Pennsylvania
Current Conditions -  °F | °C
As of 6:51 PM on Sunday 23 Nov 2014 (Local Time) from KABE Reporting Station
Clear Clear  
Wind Chill: 50°   Ceiling: Unl
Heat Index: 50°   Visibility: 10mi
Dew Point: 26°   Wind: 7mph
Humidity: 39%   Direction: 150°SSE
Pressure: 30.09"   Gusts: NA
Location:  40.84°N, 75.22°W
Report Text: KABE 232351Z 15006KT 10SM CLR 10/M03 A3009 RMK AO2 SLP191 T01001033 10150 20094 56004
Loading
Personal Weather Stations






























Interactive Weather Map New forecast layout! Learn more

10-Day Weather Forecast

Advertisements
Track Severe Weather on mobile